Ocontofalls, Wisconsin
Current Conditions -  °F | °C
As of 3:35 AM on Thursday 18 Dec 2014 (Local Time) from KOCQ Reporting Station
Overcast Overcast  
Wind Chill: 19°   Ceiling: 1800
Heat Index: 27°   Visibility: 10mi
Dew Point: 23°   Wind: 8mph
Humidity: 84%   Direction: 350°N
Pressure: 30.26"   Gusts: NA
Location:  44.8816°N, 88.1735°W
Report Text: KOCQ 180935Z AUTO 35007KT 10SM OVC018 M03/M05 A3026 RMK AO1 T10281052
Loading
Personal Weather Stations






























Interactive Weather Map New forecast layout! Learn more

10-Day Weather Forecast

Advertisements
Track Severe Weather on mobile